Time;durP1;ratioP1;P1;durP2;ratioP2;P2;SDS_P1;SDS_P2;PMS_P1;PMS_P2;Temp;Humidity;BMP_temperature;BMP_pressure;BME280_temperature;BME280_humidity;BME280_pressure;Samples;Min_cycle;Max_cycle;Signal;HPM_P1;HPM_P2
2022/05/06 00:01:03;;;;;;;3.78;3.20;;;;;;;13.16;49.71;94405.47;4994381;28;20513;-70
2022/05/06 00:03:28;;;;;;;5.10;3.30;;;;;;;13.13;50.15;94429.38;4994313;28;20137;-69
2022/05/06 00:05:54;;;;;;;9.05;3.70;;;;;;;13.13;49.65;94424.03;4987834;28;20037;-69
2022/05/06 00:08:19;;;;;;;4.53;3.63;;;;;;;13.27;49.51;94424.66;4989930;28;20037;-70
2022/05/06 00:10:44;;;;;;;5.18;3.67;;;;;;;13.22;49.81;94417.59;4987081;28;20042;-70
2022/05/06 00:13:10;;;;;;;4.82;3.92;;;;;;;13.21;49.43;94420.56;4993432;28;20034;-70
2022/05/06 00:15:36;;;;;;;9.98;4.93;;;;;;;13.16;50.01;94428.72;4988547;28;20041;-70
2022/05/06 00:18:02;;;;;;;6.30;3.80;;;;;;;12.98;49.83;94411.91;4996000;28;20092;-70
2022/05/06 00:20:27;;;;;;;5.95;4.15;;;;;;;13.10;50.12;94435.34;4987542;28;20033;-70
2022/05/06 00:22:53;;;;;;;5.28;4.40;;;;;;;13.12;49.81;94433.13;4993740;28;20984;-70
2022/05/06 00:25:18;;;;;;;5.65;3.65;;;;;;;13.13;49.92;94448.06;4996114;28;20038;-70
2022/05/06 00:27:43;;;;;;;4.90;3.90;;;;;;;13.10;50.25;94452.16;4989186;28;20030;-70
2022/05/06 00:30:10;;;;;;;4.28;3.58;;;;;;;13.06;50.39;94447.72;4992092;28;22516;-69
2022/05/06 00:32:36;;;;;;;3.75;3.10;;;;;;;12.89;50.13;94419.16;4988571;28;20041;-70
2022/05/06 00:35:01;;;;;;;3.60;3.10;;;;;;;12.93;50.17;94435.31;4985470;28;20217;-70
2022/05/06 00:37:27;;;;;;;5.05;3.58;;;;;;;13.02;50.03;94449.47;4986321;28;20132;-70
2022/05/06 00:39:53;;;;;;;6.18;4.00;;;;;;;12.85;50.29;94431.53;4990351;28;20496;-70
2022/05/06 00:42:19;;;;;;;4.85;3.97;;;;;;;12.80;50.24;94423.69;4995633;28;20058;-70
2022/05/06 00:44:44;;;;;;;3.72;3.25;;;;;;;13.04;50.03;94436.59;4991421;28;20133;-70
2022/05/06 00:47:10;;;;;;;6.47;3.03;;;;;;;12.82;50.14;94422.25;4990970;28;20516;-70
2022/05/06 00:49:36;;;;;;;4.55;3.72;;;;;;;12.96;50.17;94450.72;4993330;28;20446;-71
2022/05/06 00:52:04;;;;;;;6.10;3.97;;;;;;;12.92;50.26;94449.75;4985704;28;20062;-70
2022/05/06 00:54:33;;;;;;;5.57;3.85;;;;;;;12.94;50.70;94450.25;4988188;28;20049;-69
2022/05/06 00:57:00;;;;;;;4.85;3.97;;;;;;;12.93;50.61;94443.31;4990350;28;20034;-71
2022/05/06 00:59:26;;;;;;;5.45;4.20;;;;;;;12.77;50.73;94435.75;4994688;28;20370;-69
2022/05/06 01:01:51;;;;;;;5.20;3.78;;;;;;;12.73;50.91;94426.81;4992379;28;20052;-71
2022/05/06 01:04:17;;;;;;;6.60;3.20;;;;;;;12.88;50.47;94454.94;4989256;28;20085;-70
2022/05/06 01:06:43;;;;;;;5.15;3.47;;;;;;;12.91;50.65;94464.97;4988843;28;20139;-70
2022/05/06 01:09:14;;;;;;;6.47;4.07;;;;;;;12.87;50.57;94446.16;4991193;28;20561;-69
2022/05/06 01:11:39;;;;;;;6.63;3.97;;;;;;;12.80;50.42;94437.81;4987353;28;20038;-70
2022/05/06 01:14:05;;;;;;;7.97;4.22;;;;;;;12.84;50.97;94456.66;4992257;28;20493;-69
2022/05/06 01:16:34;;;;;;;5.78;4.03;;;;;;;12.67;51.19;94433.38;4974799;28;20312;-70
2022/05/06 01:19:00;;;;;;;6.55;4.40;;;;;;;12.81;51.01;94449.28;4985608;28;20406;-69
2022/05/06 01:21:27;;;;;;;3.80;3.40;;;;;;;12.80;50.99;94453.84;4990896;28;20042;-69
2022/05/06 01:23:53;;;;;;;6.25;4.90;;;;;;;12.79;50.73;94454.94;4988438;28;20050;-70
2022/05/06 01:26:18;;;;;;;6.45;4.05;;;;;;;12.75;50.97;94450.53;4968939;28;20487;-70
2022/05/06 01:28:45;;;;;;;5.32;3.40;;;;;;;12.71;51.03;94450.34;4966979;28;20398;-70
2022/05/06 01:31:20;;;;;;;5.00;3.47;;;;;;;12.58;51.02;94427.25;4971079;28;20563;-70
2022/05/06 01:33:54;;;;;;;4.72;3.38;;;;;;;12.13;51.06;94367.91;4973416;28;20047;-70
2022/05/06 01:36:23;;;;;;;4.88;3.58;;;;;;;12.67;50.92;94441.38;4972024;28;20055;-69
2022/05/06 01:38:52;;;;;;;5.65;3.70;;;;;;;12.64;51.32;94438.56;4973190;28;20037;-70
2022/05/06 01:41:23;;;;;;;6.05;4.18;;;;;;;12.62;51.45;94433.53;4970806;28;20034;-70
2022/05/06 01:44:16;;;;;;;5.20;3.65;;;;;;;12.61;51.42;94442.66;4971783;28;20066;-71
2022/05/06 01:46:42;;;;;;;5.95;3.58;;;;;;;12.59;51.44;94442.16;4969879;28;20042;-69
2022/05/06 01:49:10;;;;;;;5.05;3.97;;;;;;;12.59;51.44;94434.16;4969206;28;20056;-70
2022/05/06 01:51:38;;;;;;;5.25;4.68;;;;;;;12.54;51.53;94434.25;4972905;28;20088;-69
2022/05/06 01:54:04;;;;;;;4.78;3.92;;;;;;;12.56;51.32;94448.09;4966768;28;20053;-70
2022/05/06 01:56:29;;;;;;;6.53;4.20;;;;;;;12.53;51.40;94431.91;4978139;28;20381;-70
2022/05/06 01:58:55;;;;;;;6.85;3.65;;;;;;;12.49;51.45;94442.41;4995426;28;20046;-70
2022/05/06 02:01:20;;;;;;;4.35;3.63;;;;;;;12.54;51.55;94450.28;4990183;28;20434;-69
2022/05/06 02:06:30;;;;;;;4.00;3.20;;;;;;;12.23;51.44;94401.50;4979762;28;20639;-70
2022/05/06 02:08:55;;;;;;;4.43;3.83;;;;;;;12.44;51.48;94443.34;4993167;28;20136;-70
2022/05/06 02:11:21;;;;;;;4.32;3.22;;;;;;;12.39;51.72;94437.34;4989519;28;20026;-69
2022/05/06 02:13:46;;;;;;;5.32;3.55;;;;;;;12.42;51.66;94450.06;4990360;28;20037;-70
2022/05/06 02:16:12;;;;;;;4.70;3.30;;;;;;;12.41;51.95;94457.31;4993775;28;20038;-71
2022/05/06 02:18:37;;;;;;;5.70;3.50;;;;;;;12.42;51.76;94452.72;4993560;28;20033;-70
2022/05/06 02:21:03;;;;;;;6.00;4.38;;;;;;;12.24;51.88;94435.09;4990106;28;20191;-69
2022/05/06 02:23:28;;;;;;;5.18;3.45;;;;;;;12.37;51.88;94456.31;4998053;28;20492;-71
2022/05/06 02:25:54;;;;;;;3.90;3.33;;;;;;;12.39;51.88;94453.34;4972991;28;20096;-70
2022/05/06 02:28:20;;;;;;;7.03;4.35;;;;;;;12.28;51.79;94430.72;4987155;28;20038;-70
2022/05/06 02:33:31;;;;;;;5.07;3.80;;;;;;;12.34;51.93;94445.50;4990511;28;20069;-70
2022/05/06 02:35:57;;;;;;;5.03;3.90;;;;;;;12.37;52.16;94445.66;4997616;28;20038;-70
2022/05/06 02:38:23;;;;;;;5.95;3.60;;;;;;;12.32;52.00;94439.69;4992520;28;20029;-70
2022/05/06 02:40:49;;;;;;;6.90;4.57;;;;;;;12.38;51.95;94446.44;4986645;28;20132;-71
2022/05/06 02:43:17;;;;;;;6.18;4.35;;;;;;;12.40;51.92;94445.06;4992969;28;20522;-70
2022/05/06 02:45:43;;;;;;;6.82;3.30;;;;;;;12.30;51.83;94436.53;4990714;28;20108;-70
2022/05/06 02:48:08;;;;;;;4.25;3.55;;;;;;;12.23;51.96;94430.84;4990376;28;20621;-70
2022/05/06 02:50:34;;;;;;;5.10;3.75;;;;;;;12.41;51.93;94446.63;4985887;28;20258;-70
2022/05/06 02:53:00;;;;;;;6.85;3.83;;;;;;;12.40;51.91;94445.06;4997647;28;20549;-69
2022/05/06 02:55:25;;;;;;;6.10;4.35;;;;;;;12.21;52.01;94430.38;4971766;28;20089;-69
2022/05/06 02:57:51;;;;;;;6.25;4.82;;;;;;;12.25;52.13;94434.00;4974355;28;20045;-71
2022/05/06 03:00:17;;;;;;;6.97;4.15;;;;;;;12.28;52.50;94447.50;4967268;28;20538;-70
2022/05/06 03:02:43;;;;;;;5.93;4.20;;;;;;;12.30;52.27;94455.22;4977803;28;20399;-70
2022/05/06 03:05:09;;;;;;;4.93;4.35;;;;;;;12.28;52.46;94452.06;4973279;28;20027;-69
2022/05/06 03:07:35;;;;;;;5.35;4.50;;;;;;;12.28;52.30;94454.72;4974092;28;20598;-70
2022/05/06 03:10:01;;;;;;;5.63;4.32;;;;;;;12.17;52.35;94440.09;4985760;28;20030;-70
2022/05/06 03:12:26;;;;;;;7.65;4.72;;;;;;;12.24;52.17;94445.75;4988938;28;20050;-70
2022/05/06 03:14:53;;;;;;;5.40;4.22;;;;;;;12.10;52.44;94418.41;4993305;28;20034;-69
2022/05/06 03:17:19;;;;;;;6.00;4.55;;;;;;;12.22;52.63;94442.63;4982830;28;20075;-70
2022/05/06 03:19:44;;;;;;;6.80;4.07;;;;;;;12.11;52.50;94430.66;4991364;28;20041;-69
2022/05/06 03:22:10;;;;;;;6.88;3.88;;;;;;;11.86;52.61;94390.25;4990155;28;20038;-69
2022/05/06 03:24:35;;;;;;;5.22;3.92;;;;;;;12.24;52.65;94462.56;4991334;28;20402;-71
2022/05/06 03:27:01;;;;;;;4.28;3.88;;;;;;;12.17;52.56;94456.91;4994814;28;20121;-70
2022/05/06 03:29:26;;;;;;;7.50;4.82;;;;;;;12.00;52.83;94436.25;4989723;28;20136;-69
2022/05/06 03:31:56;;;;;;;5.28;4.45;;;;;;;12.17;52.82;94461.44;4994555;28;20596;-70
2022/05/06 03:34:21;;;;;;;5.28;4.68;;;;;;;12.17;52.89;94461.44;4990053;28;20034;-70
2022/05/06 03:36:47;;;;;;;10.05;5.05;;;;;;;12.10;53.13;94458.41;4986565;28;20037;-71
2022/05/06 03:39:13;;;;;;;8.65;5.40;;;;;;;12.07;52.94;94451.81;4994216;28;20413;-70
2022/05/06 03:41:38;;;;;;;5.47;4.47;;;;;;;12.19;53.26;94480.56;4992981;28;21788;-70
2022/05/06 03:44:08;;;;;;;6.82;5.15;;;;;;;12.21;53.09;94478.38;4988392;28;20029;-70
2022/05/06 03:46:33;;;;;;;4.70;4.22;;;;;;;12.18;53.51;94482.44;4990233;28;20064;-70
2022/05/06 03:49:01;;;;;;;6.93;5.10;;;;;;;12.22;53.41;94482.63;4988381;28;21237;-69
2022/05/06 03:51:28;;;;;;;7.32;4.75;;;;;;;12.12;53.38;94474.91;4993043;28;20085;-70
2022/05/06 03:53:55;;;;;;;7.30;4.93;;;;;;;12.25;53.10;94490.00;4980954;28;20045;-70
2022/05/06 03:56:25;;;;;;;5.80;4.45;;;;;;;12.14;53.49;94483.38;4998018;28;20018;-70
2022/05/06 03:58:51;;;;;;;5.75;4.80;;;;;;;12.05;53.42;94475.31;4983816;28;20160;-70
2022/05/06 04:01:19;;;;;;;5.47;4.45;;;;;;;12.25;53.52;94498.03;4993780;28;20038;-70
2022/05/06 04:03:48;;;;;;;6.07;4.85;;;;;;;12.10;53.76;94477.06;4990287;28;20035;-69
2022/05/06 04:06:14;;;;;;;7.95;5.43;;;;;;;12.24;53.46;94488.44;4994272;28;20628;-70
2022/05/06 04:08:41;;;;;;;6.25;4.93;;;;;;;12.29;53.83;94493.63;4988425;28;20387;-69
2022/05/06 04:11:11;;;;;;;7.75;5.22;;;;;;;12.29;53.94;94490.97;4994563;28;20014;-70
2022/05/06 04:13:36;;;;;;;7.57;5.18;;;;;;;12.35;53.61;94501.22;4987094;28;20061;-70
2022/05/06 04:16:02;;;;;;;8.27;5.75;;;;;;;12.32;53.61;94485.03;4990975;28;20148;-69
2022/05/06 04:18:30;;;;;;;6.45;5.50;;;;;;;12.35;53.58;94495.09;4987906;28;20035;-69
2022/05/06 04:23:40;;;;;;;8.93;6.47;;;;;;;12.16;54.12;94465.97;4993814;28;20053;-72
2022/05/06 04:26:13;;;;;;;11.38;7.05;;;;;;;12.38;54.25;94502.47;4992904;28;20766;-70
2022/05/06 04:28:39;;;;;;;10.20;7.40;;;;;;;12.40;54.17;94505.63;4976628;28;20278;-70
2022/05/06 04:31:06;;;;;;;10.38;6.78;;;;;;;11.94;54.54;94448.13;4986395;28;20057;-70
2022/05/06 04:33:31;;;;;;;10.40;7.15;;;;;;;12.44;54.11;94512.69;4986971;28;20046;-70
2022/05/06 04:35:58;;;;;;;12.60;9.35;;;;;;;12.51;53.90;94520.28;4994232;28;20080;-70
2022/05/06 04:38:23;;;;;;;13.80;8.32;;;;;;;12.29;53.85;94480.31;4989985;28;20604;-70
2022/05/06 04:40:50;;;;;;;12.35;8.30;;;;;;;12.47;54.28;94524.63;4991197;28;20050;-70
2022/05/06 04:43:20;;;;;;;9.45;6.80;;;;;;;12.50;54.20;94518.69;4986693;28;20042;-70
2022/05/06 04:45:46;;;;;;;12.23;6.82;;;;;;;12.52;54.18;94511.16;4989161;28;20465;-70
2022/05/06 04:48:12;;;;;;;9.13;6.95;;;;;;;12.56;54.50;94517.47;4991322;28;20036;-70
2022/05/06 04:50:39;;;;;;;11.30;7.72;;;;;;;12.61;54.06;94520.03;4985600;28;20470;-70
2022/05/06 04:53:07;;;;;;;12.73;7.28;;;;;;;12.63;54.00;94517.03;4996086;28;20446;-70
2022/05/06 04:55:43;;;;;;;11.02;7.57;;;;;;;12.69;54.03;94516.59;4981630;28;20034;-70
2022/05/06 04:58:10;;;;;;;10.15;6.85;;;;;;;12.69;54.22;94527.28;4992999;28;20100;-70
2022/05/06 05:00:36;;;;;;;8.32;7.30;;;;;;;12.70;53.68;94507.50;4987338;28;20144;-69
2022/05/06 05:03:02;;;;;;;10.98;9.07;;;;;;;12.89;54.00;94525.94;4996400;28;20038;-69
2022/05/06 05:05:28;;;;;;;12.57;9.20;;;;;;;12.97;53.58;94529.72;4986952;28;20018;-70
2022/05/06 05:07:54;;;;;;;14.15;9.80;;;;;;;13.02;53.73;94545.59;4992391;28;20297;-69
2022/05/06 05:10:22;;;;;;;18.90;12.18;;;;;;;13.00;53.91;94537.13;4989011;28;20113;-71
2022/05/06 05:12:47;;;;;;;14.38;10.13;;;;;;;13.02;54.17;94534.91;4992473;28;20461;-69
2022/05/06 05:15:15;;;;;;;16.33;9.10;;;;;;;13.06;54.14;94541.19;4991218;28;20074;-71
2022/05/06 05:17:41;;;;;;;14.23;7.97;;;;;;;13.02;53.86;94530.34;4987603;28;20148;-70
2022/05/06 05:20:07;;;;;;;13.40;9.77;;;;;;;13.14;53.80;94543.91;4994198;28;20442;-70
2022/05/06 05:22:34;;;;;;;12.15;8.73;;;;;;;13.24;53.48;94540.94;4989587;28;20092;-71
2022/05/06 05:24:59;;;;;;;14.35;9.05;;;;;;;13.22;53.32;94537.00;4989452;28;20034;-70
2022/05/06 05:27:25;;;;;;;14.20;8.73;;;;;;;13.11;53.52;94536.50;4995754;28;20065;-70
2022/05/06 05:29:50;;;;;;;12.52;8.52;;;;;;;13.16;53.76;94524.88;4994176;28;20030;-70
2022/05/06 05:32:17;;;;;;;14.07;9.10;;;;;;;13.20;53.62;94526.63;4989979;28;20053;-70
2022/05/06 05:34:43;;;;;;;14.07;9.30;;;;;;;13.24;53.91;94530.25;4991857;28;20073;-70
2022/05/06 05:37:09;;;;;;;19.88;11.35;;;;;;;12.90;53.25;94468.78;4990704;28;20142;-70
2022/05/06 05:39:35;;;;;;;13.32;10.18;;;;;;;13.32;53.32;94536.69;4991302;28;20042;-70
2022/05/06 05:42:00;;;;;;;10.88;8.50;;;;;;;13.40;52.98;94541.25;4993035;28;20053;-70
2022/05/06 05:49:53;;;;;;;12.82;8.18;;;;;;;13.27;53.15;94520.81;4971306;28;20088;-70
2022/05/06 05:52:19;;;;;;;10.45;8.32;;;;;;;13.35;53.33;94524.63;4975207;28;20068;-70
2022/05/06 05:54:44;;;;;;;12.85;8.73;;;;;;;13.38;52.87;94514.09;4984007;28;20030;-70
2022/05/06 05:57:09;;;;;;;14.90;8.85;;;;;;;13.14;54.07;94522.53;4991018;28;20129;-70
2022/05/06 05:59:35;;;;;;;11.52;9.10;;;;;;;13.33;52.86;94517.69;4996838;28;20025;-70
2022/05/06 06:02:02;;;;;;;11.50;8.60;;;;;;;13.50;52.47;94519.56;4991176;28;20104;-69
2022/05/06 06:04:27;;;;;;;15.27;8.88;;;;;;;13.56;52.64;94523.69;4993457;28;20426;-70
2022/05/06 06:06:52;;;;;;;12.63;9.35;;;;;;;12.85;54.84;94530.31;4982954;28;20031;-70
2022/05/06 06:09:22;;;;;;;20.77;10.10;;;;;;;12.30;56.15;94508.56;4974643;28;20038;-70
2022/05/06 06:11:48;;;;;;;10.23;8.10;;;;;;;12.44;56.98;94509.25;4972006;28;20479;-70
2022/05/06 06:14:14;;;;;;;17.40;12.43;;;;;;;12.01;57.83;94504.47;4975070;28;20390;-70
2022/05/06 06:16:39;;;;;;;14.43;10.50;;;;;;;12.67;56.77;94529.44;4974865;28;20050;-70
2022/05/06 06:19:04;;;;;;;12.02;8.93;;;;;;;12.34;58.06;94526.31;4974245;28;20042;-69
2022/05/06 06:21:30;;;;;;;11.82;8.70;;;;;;;11.84;58.23;94509.69;4971726;28;21556;-70
2022/05/06 06:23:55;;;;;;;14.32;9.43;;;;;;;12.00;59.70;94536.78;4977006;28;20046;-70
2022/05/06 06:26:21;;;;;;;13.40;9.25;;;;;;;11.95;59.56;94519.03;4964377;28;20561;-69
2022/05/06 06:28:46;;;;;;;10.77;8.75;;;;;;;12.18;59.16;94511.00;4975503;28;20057;-69
2022/05/06 06:31:12;;;;;;;14.65;10.23;;;;;;;12.74;57.75;94513.78;4973900;28;20034;-70
2022/05/06 06:33:38;;;;;;;11.80;8.52;;;;;;;12.57;55.93;94532.38;4969331;28;20070;-70
2022/05/06 06:36:05;;;;;;;10.30;7.15;;;;;;;12.06;57.15;94529.44;4961736;28;20046;-70
2022/05/06 06:38:31;;;;;;;11.35;8.48;;;;;;;12.34;57.01;94520.19;4967100;28;20030;-71
2022/05/06 06:40:56;;;;;;;12.73;8.70;;;;;;;12.45;56.32;94527.63;4969442;28;20058;-70
2022/05/06 06:43:21;;;;;;;12.13;8.07;;;;;;;12.50;56.82;94523.25;4964796;28;20549;-71
2022/05/06 06:45:47;;;;;;;16.10;9.05;;;;;;;12.30;57.30;94530.69;4971167;28;20475;-70
2022/05/06 06:48:12;;;;;;;14.07;8.82;;;;;;;12.92;55.47;94527.97;4971882;28;20034;-70
2022/05/06 06:50:39;;;;;;;12.32;8.52;;;;;;;13.30;54.74;94522.84;4972747;28;21063;-69
2022/05/06 06:53:07;;;;;;;11.52;7.55;;;;;;;13.71;53.91;94523.22;4990392;28;20087;-70
2022/05/06 06:55:33;;;;;;;12.15;8.18;;;;;;;13.15;54.11;94512.66;4987463;28;20068;-70
2022/05/06 06:57:58;;;;;;;13.18;8.38;;;;;;;13.62;52.93;94522.44;4979661;28;20113;-71
2022/05/06 07:00:23;;;;;;;17.30;8.32;;;;;;;13.90;51.99;94503.41;4970776;28;20708;-69
2022/05/06 07:02:49;;;;;;;10.57;7.88;;;;;;;14.08;51.56;94502.28;4975050;28;20042;-70
2022/05/06 07:05:15;;;;;;;11.95;8.05;;;;;;;14.22;51.92;94489.50;4971358;28;20511;-70
2022/05/06 07:13:08;;;;;;;10.70;8.48;;;;;;;14.11;52.35;94512.34;4971760;28;20491;-70
2022/05/06 07:15:34;;;;;;;12.95;8.82;;;;;;;14.23;50.78;94509.78;4968820;28;20297;-70
2022/05/06 07:17:59;;;;;;;13.23;8.32;;;;;;;14.73;50.80;94519.88;4971005;28;20477;-70
2022/05/06 07:20:25;;;;;;;13.25;8.70;;;;;;;14.78;51.07;94525.06;4969083;28;20030;-70
2022/05/06 07:22:50;;;;;;;11.93;8.57;;;;;;;14.16;50.76;94504.16;4986504;28;20038;-70
2022/05/06 07:25:16;;;;;;;11.30;7.13;;;;;;;13.95;52.05;94513.94;4989582;28;20239;-71
2022/05/06 07:27:43;;;;;;;11.65;7.82;;;;;;;14.39;51.63;94524.22;4992218;28;20157;-69
2022/05/06 07:30:09;;;;;;;13.10;7.88;;;;;;;14.36;51.33;94516.84;4990179;28;20129;-69
2022/05/06 07:32:37;;;;;;;11.23;7.88;;;;;;;14.64;50.63;94514.56;4985363;28;20360;-69
2022/05/06 07:35:03;;;;;;;14.43;9.00;;;;;;;14.52;50.54;94507.16;4968108;28;20027;-70
2022/05/06 07:37:33;;;;;;;12.65;7.82;;;;;;;14.36;50.66;94513.38;4971882;28;20041;-69
2022/05/06 07:40:02;;;;;;;14.18;7.80;;;;;;;14.13;50.20;94513.59;4970695;28;20518;-70
2022/05/06 07:42:31;;;;;;;10.65;7.22;;;;;;;14.34;50.32;94523.59;4969723;28;20081;-70
2022/05/06 07:45:00;;;;;;;11.23;7.50;;;;;;;13.83;51.28;94498.56;4969449;28;20057;-70
2022/05/06 07:47:26;;;;;;;24.92;8.35;;;;;;;13.77;52.24;94523.88;4971970;28;20109;-71
2022/05/06 07:49:52;;;;;;;9.40;6.90;;;;;;;13.46;52.64;94510.63;4968336;28;20081;-69
2022/05/06 07:52:18;;;;;;;11.98;6.40;;;;;;;13.89;52.06;94515.19;4970389;28;20038;-69
2022/05/06 07:54:43;;;;;;;9.52;6.75;;;;;;;13.92;51.14;94506.56;4972095;28;20034;-70
2022/05/06 07:57:09;;;;;;;11.18;6.72;;;;;;;13.64;50.89;94506.88;4972559;28;20112;-69
2022/05/06 07:59:34;;;;;;;9.15;7.22;;;;;;;14.21;50.24;94519.25;4971277;28;20042;-70
2022/05/06 08:04:48;;;;;;;9.15;6.10;;;;;;;14.05;50.59;94519.75;4966329;28;20045;-70
2022/05/06 08:07:14;;;;;;;8.30;5.82;;;;;;;14.03;51.01;94510.47;4965489;28;20042;-70
2022/05/06 08:09:42;;;;;;;10.63;7.25;;;;;;;14.40;51.15;94508.97;4969478;28;20068;-71
2022/05/06 08:12:08;;;;;;;6.90;5.95;;;;;;;14.40;51.08;94503.59;4968874;28;20064;-70
2022/05/06 08:14:34;;;;;;;11.68;6.28;;;;;;;14.27;50.90;94512.63;4973195;28;20035;-70
2022/05/06 08:17:00;;;;;;;11.00;5.47;;;;;;;14.20;51.53;94510.44;4971873;28;20037;-70
2022/05/06 08:19:26;;;;;;;8.68;6.70;;;;;;;14.07;51.14;94503.38;4968800;28;20096;-69
2022/05/06 08:21:52;;;;;;;7.75;6.40;;;;;;;14.20;50.68;94489.03;4983225;28;20048;-71
2022/05/06 08:24:22;;;;;;;8.55;5.53;;;;;;;14.58;50.98;94503.25;4990916;28;20819;-70
2022/05/06 08:26:48;;;;;;;7.07;5.75;;;;;;;14.29;50.63;94486.31;4982891;28;20036;-70
2022/05/06 08:29:14;;;;;;;6.50;5.50;;;;;;;14.24;51.40;94515.91;4980142;28;20034;-71
2022/05/06 08:31:40;;;;;;;9.10;6.35;;;;;;;14.12;51.67;94514.72;4988164;28;20073;-70
2022/05/06 08:34:07;;;;;;;10.60;5.95;;;;;;;13.94;51.12;94507.78;4989399;28;20039;-69
2022/05/06 08:36:34;;;;;;;7.68;5.70;;;;;;;14.22;51.63;94504.75;4984310;28;20038;-71
2022/05/06 08:39:00;;;;;;;7.95;5.90;;;;;;;13.89;51.08;94467.06;4984744;28;20044;-70
2022/05/06 08:41:27;;;;;;;9.07;6.25;;;;;;;14.46;51.75;94499.66;4989063;28;20026;-71
2022/05/06 08:43:52;;;;;;;7.35;5.88;;;;;;;14.51;51.70;94500.28;4989788;28;20045;-71
2022/05/06 08:51:54;;;;;;;8.75;4.93;;;;;;;14.41;51.86;94494.47;4979501;28;20060;-69
2022/05/06 08:54:21;;;;;;;6.32;4.63;;;;;;;14.60;51.73;94501.06;4986618;28;20418;-70
2022/05/06 08:56:47;;;;;;;8.13;4.60;;;;;;;14.57;51.41;94499.00;4987439;28;20034;-70
2022/05/06 08:59:12;;;;;;;9.32;5.30;;;;;;;14.57;50.13;94501.66;4989511;28;20088;-70
2022/05/06 09:01:38;;;;;;;6.32;4.90;;;;;;;14.68;50.52;94498.63;4989755;28;21169;-70
2022/05/06 09:04:03;;;;;;;7.25;5.25;;;;;;;14.62;51.15;94479.28;4985624;28;20085;-70
2022/05/06 09:06:31;;;;;;;9.80;5.53;;;;;;;14.73;50.73;94501.13;4989523;28;20064;-69
2022/05/06 09:08:59;;;;;;;5.00;4.30;;;;;;;14.86;50.40;94486.75;4988761;28;20149;-71
2022/05/06 09:16:39;;;;;;;7.07;4.90;;;;;;;14.86;49.27;94494.78;4990521;28;20122;-70
2022/05/06 09:17:18;;;;;;;6.72;4.72;;;;;;;14.79;50.00;94489.16;4985827;28;20151;-70
2022/05/06 09:19:43;;;;;;;6.85;5.05;;;;;;;14.58;49.66;94452.38;4988916;28;20045;-70
2022/05/06 09:22:13;;;;;;;5.18;4.65;;;;;;;14.87;49.62;94482.94;4974699;28;20031;-69
2022/05/06 09:24:39;;;;;;;6.40;5.35;;;;;;;14.93;48.85;94476.31;4972145;28;20486;-70
2022/05/06 09:27:06;;;;;;;6.38;4.55;;;;;;;14.81;49.00;94460.94;4967339;28;20066;-70
2022/05/06 09:29:35;;;;;;;5.68;4.55;;;;;;;14.88;48.10;94471.94;4971530;28;20638;-71
2022/05/06 09:32:27;;;;;;;4.75;4.35;;;;;;;15.06;47.64;94467.25;4988744;28;20042;-71
2022/05/06 09:34:56;;;;;;;6.28;4.35;;;;;;;14.74;48.15;94473.25;4986718;28;20506;-69
2022/05/06 09:37:29;;;;;;;5.32;4.43;;;;;;;14.81;47.23;94463.63;4988345;28;20233;-70
2022/05/06 09:40:07;;;;;;;6.72;4.88;;;;;;;14.75;48.16;94456.09;4988701;28;20386;-71
2022/05/06 09:42:34;;;;;;;6.03;4.53;;;;;;;14.72;48.77;94462.06;4985754;28;20038;-70
2022/05/06 09:45:03;;;;;;;6.35;4.57;;;;;;;14.60;49.13;94444.03;4988519;28;20058;-70
2022/05/06 09:47:30;;;;;;;6.40;4.78;;;;;;;14.79;48.63;94452.44;4989275;28;20018;-69
2022/05/06 09:49:56;;;;;;;5.18;4.43;;;;;;;14.79;48.13;94457.81;4989346;28;20165;-70
2022/05/06 09:52:21;;;;;;;5.57;5.00;;;;;;;14.87;47.73;94453.50;4985317;28;20038;-70
2022/05/06 09:54:48;;;;;;;6.45;5.32;;;;;;;15.08;47.69;94453.53;4985272;28;20034;-70
2022/05/06 09:57:16;;;;;;;7.20;4.30;;;;;;;14.97;46.67;94442.41;4982351;28;20655;-69
2022/05/06 09:59:41;;;;;;;5.57;4.53;;;;;;;14.85;46.34;94445.00;4987246;28;20030;-70
2022/05/06 10:02:08;;;;;;;4.90;4.18;;;;;;;14.96;45.95;94440.84;4988462;28;20505;-70
2022/05/06 10:04:38;;;;;;;5.07;4.35;;;;;;;14.83;46.14;94457.94;4989694;28;20551;-70
2022/05/06 10:07:07;;;;;;;8.48;4.63;;;;;;;14.80;46.24;94447.88;4987933;28;20044;-70
2022/05/06 10:09:38;;;;;;;6.10;4.57;;;;;;;14.90;46.66;94444.81;4983634;28;20042;-70
2022/05/06 10:12:06;;;;;;;7.78;6.18;;;;;;;14.93;47.22;94447.63;4987960;28;20065;-69
2022/05/06 10:14:32;;;;;;;5.40;4.80;;;;;;;14.93;46.20;94433.47;4991401;28;20044;-71
2022/05/06 10:16:58;;;;;;;6.18;4.63;;;;;;;14.79;46.29;94419.53;4974673;28;20038;-70
2022/05/06 10:19:38;;;;;;;6.95;4.10;;;;;;;15.11;45.20;94445.63;4985936;28;20057;-70
2022/05/06 10:22:04;;;;;;;7.22;5.60;;;;;;;15.16;45.98;94450.00;4992798;28;20465;-70
2022/05/06 10:24:50;;;;;;;10.20;4.78;;;;;;;14.92;45.14;94453.31;4987744;28;20046;-70
2022/05/06 10:27:23;;;;;;;8.48;5.03;;;;;;;14.91;45.74;94446.41;4970427;28;20042;-69
2022/05/06 10:32:54;;;;;;;5.25;4.57;;;;;;;15.20;45.41;94441.00;4974888;28;20079;-70
2022/05/06 10:35:36;;;;;;;6.72;4.28;;;;;;;15.30;44.70;94435.22;4980311;28;20055;-71
2022/05/06 10:38:17;;;;;;;4.22;3.85;;;;;;;15.28;43.96;94431.31;4974138;28;20049;-70
2022/05/06 10:41:02;;;;;;;5.35;4.47;;;;;;;15.36;44.40;94433.94;4972654;28;20050;-69
2022/05/06 10:43:39;;;;;;;;;;;;;;;15.35;43.72;94426.22;4966064;28;20042;-71
2022/05/06 10:46:05;;;;;;;5.72;4.18;;;;;;;15.58;43.62;94421.31;4969801;28;19979;-69
2022/05/06 10:48:31;;;;;;;7.78;4.22;;;;;;;15.42;43.66;94403.13;4963762;28;20125;-70
2022/05/06 10:51:24;;;;;;;6.85;4.68;;;;;;;15.60;43.12;94421.75;4961318;28;20039;-70
2022/05/06 10:53:49;;;;;;;4.47;4.00;;;;;;;15.62;43.08;94401.56;4959943;28;20437;-71
2022/05/06 10:56:15;;;;;;;5.32;4.00;;;;;;;15.57;41.85;94422.44;4965193;28;20035;-69
2022/05/06 10:58:41;;;;;;;4.63;3.90;;;;;;;15.43;42.55;94374.44;4964202;28;20038;-70
2022/05/06 11:01:15;;;;;;;6.43;3.53;;;;;;;15.72;42.18;94424.50;4971907;28;20046;-70
2022/05/06 11:03:53;;;;;;;6.75;4.40;;;;;;;15.67;41.96;94413.97;4969059;28;20635;-70
2022/05/06 11:06:23;;;;;;;6.05;3.63;;;;;;;16.01;41.97;94416.31;4969563;28;20035;-70
2022/05/06 11:08:49;;;;;;;3.97;3.35;;;;;;;15.99;41.47;94415.84;4965452;28;20057;-71
2022/05/06 11:11:19;;;;;;;4.13;3.72;;;;;;;16.08;40.98;94410.41;4962746;28;20034;-69
2022/05/06 11:13:47;;;;;;;3.80;3.45;;;;;;;15.65;41.14;94382.13;4979352;28;20487;-70
2022/05/06 11:16:14;;;;;;;3.55;3.10;;;;;;;15.64;40.83;94411.97;4982448;28;20581;-70
2022/05/06 11:18:44;;;;;;;3.75;3.13;;;;;;;15.81;41.40;94406.44;4988521;28;20042;-69
2022/05/06 11:21:23;;;;;;;6.43;3.78;;;;;;;15.71;40.96;94396.13;4994227;28;20041;-69
2022/05/06 11:23:48;;;;;;;5.03;4.07;;;;;;;15.84;41.69;94395.81;4990687;28;20033;-70
2022/05/06 11:26:26;;;;;;;3.80;3.45;;;;;;;15.90;40.76;94385.66;4990262;28;20363;-70
2022/05/06 11:29:03;;;;;;;5.18;3.67;;;;;;;15.92;40.04;94386.13;4991891;28;20135;-70
2022/05/06 11:31:28;;;;;;;5.05;3.45;;;;;;;16.12;41.41;94395.22;4994671;28;20047;-71
2022/05/06 11:33:56;;;;;;;6.80;3.58;;;;;;;16.04;40.66;94370.03;4994059;28;20517;-71
2022/05/06 11:36:21;;;;;;;5.63;3.40;;;;;;;16.08;40.25;94384.38;4995501;28;20046;-70
2022/05/06 11:38:47;;;;;;;5.70;3.72;;;;;;;16.08;40.08;94373.63;4991219;28;20041;-70
2022/05/06 11:41:14;;;;;;;4.47;3.28;;;;;;;16.23;39.60;94378.31;4995716;28;20359;-71
2022/05/06 11:43:41;;;;;;;5.18;3.22;;;;;;;16.20;39.27;94376.31;4988763;28;20076;-70
2022/05/06 11:48:57;;;;;;;3.35;3.05;;;;;;;16.36;40.00;94389.09;4993952;28;20041;-70
2022/05/06 11:51:36;;;;;;;4.50;3.42;;;;;;;16.03;39.80;94375.75;4991104;28;20038;-71
2022/05/06 11:54:04;;;;;;;3.80;3.33;;;;;;;16.00;39.56;94361.09;4991871;28;20544;-71
2022/05/06 11:56:30;;;;;;;5.38;3.67;;;;;;;16.16;39.09;94370.06;4992564;28;20627;-70
2022/05/06 11:58:59;;;;;;;3.65;3.30;;;;;;;16.27;39.05;94371.19;4988526;28;20049;-69
2022/05/06 12:01:31;;;;;;;3.03;2.72;;;;;;;16.33;37.94;94365.63;4993027;28;20050;-70
2022/05/06 12:04:08;;;;;;;5.45;3.45;;;;;;;16.48;38.10;94370.31;4990486;28;20034;-70
2022/05/06 12:06:38;;;;;;;3.65;3.20;;;;;;;16.45;38.40;94361.03;4993628;28;20686;-71
2022/05/06 12:09:12;;;;;;;4.65;3.10;;;;;;;16.41;38.44;94364.72;4989773;28;20038;-69